AirNav   Air Wisconsin pilot careers
 
 987 users online  

76OR Camp Withycombe Heliport
Clackamas, Oregon, USA

GOING TO CLACKAMAS?


FAA INFORMATION EFFECTIVE 08 NOVEMBER 2018

Location

FAA Identifier: 76OR
Lat/Long: 45-24-50.3150N / 122-33-30.3430W
45-24.838583N / 122-33.505717W
45.4139764 / -122.5584286
(estimated)
Elevation: 113 ft. / 34 m (estimated)
From city: 1 mile E of CLACKAMAS, OR
Time zone: UTC -8 (UTC -7 during Daylight Saving Time)
Zip code: 97015

Heliport Operations

Heliport use: Private use. Permission required prior to landing
Activation date: 05/2013
Control tower: no
ARTCC: SEATTLE CENTER
FSS: MC MINNVILLE FLIGHT SERVICE STATION
Attendance: UNATNDD
Segmented circle: no

Heliport Communications

WX ASOS at TTD (10 nm NE): 135.625 (503-492-2887)
WX ASOS at PDX (11 nm N): PHONE (503) 493-7687
WX ASOS at VUO (13 nm N): 135.125 (360-696-1280)
WX ASOS at UAO (13 nm SW): PHONE 503-678-3011
WX ASOS at HIO (18 nm NW): PHONE 503-640-2984

Nearby radio navigation aids

VOR radial/distance  VOR name  Freq  Var
UBGr057/18.1NEWBERG VOR/DME117.4021E
BTGr155/20.1BATTLE GROUND VORTAC116.6021E

 
NDB name  Hdg/Dist  Freq  Var  ID
BANKS106/24.335616EPND .--. -. -..

Heliport Services

Runway Information

Helipad H1

Dimensions: 68 x 34 ft. / 21 x 10 m
Surface: concrete
Traffic pattern: leftleft

Heliport Ownership and Management from official FAA records

Ownership: Privately-owned
Owner: OREGON ARMY NATIONAL GUARD
1776 MILITIA WAY, SE
SALEM, OR 97309
Phone 503-584-3992
Manager: TODD E. FARMER
1776 MILITIA WAY, SE
SALEM, OR 97309
Phone 503-584-3992
OTHER CONTACT - CW5 GREGG SCHROEDER 503-584-3472

Additional Remarks

RSTD-OFFL BUS ONLY. PPR DSN 355-5931, C503-683-5931 DURING NORMAL BUSINESS HOURS.
RSTD-ALL ACFT APCH FROM AND DEP TO N. AVOID OVFT OF CANTONMENT AREA
CONTACT OPERATIONS 5 MINUTES OUT ON PRIM FM 46.90, ALTN VHF 139.60.
FOR CD CTC PORTLAND APCH AT 503-493-7545.

Instrument Procedures

There are no published instrument procedures at 76OR.

Some nearby airports with instrument procedures:

KTTD - Portland-Troutdale Airport (10 nm NE)
KPDX - Portland International Airport (11 nm N)
KVUO - Pearson Field Airport (13 nm N)
KUAO - Aurora State Airport (13 nm SW)
KHIO - Portland-Hillsboro Airport (18 nm NW)
 
Loc | Ops | Rwys | IFR | FBO | Links
Com | Nav | Svcs | Stats | Notes


 
Aerial photo
No photo
 
Airport distance calculator
Flying to Camp Withycombe Heliport? Find the distance to fly.

From to 76OR

Sunrise and sunset
Times for 18-Nov-2018
 Local
(UTC-8)
 Zulu
(UTC)
Morning civil twilight06:4214:42
Sunrise07:1415:14
Sunset16:3700:37
Evening civil twilight17:0901:09

Current date and time
Zulu (UTC)  18-Nov-2018 19:55:50
Local (UTC-8)  18-Nov-2018 11:55:50
 
METAR
KTTD 
10nm NE 
181853Z 09020G29KT 10SM CLR 09/01 A3019 RMK AO2 PK WND 09030/1756 SLP222 T00940006
KPDX 
10nm N 
181853Z 29005KT 10SM CLR 09/02 A3020 RMK AO2 SLP225 T00940017
KVUO 
13nm N 
181853Z AUTO 31003KT 10SM CLR 09/01 A3019 RMK AO2 SLP224 T00940011
KUAO 
13nm SW 
181853Z 12003KT 10SM CLR 10/02 A3018 RMK AO2 SLP220 T01000017
KHIO 
18nm NW 
181853Z 31004KT 10SM CLR 09/02 A3019 RMK AO2 SLP222 T00940022
TAF
KTTD 
10nm NE 
181732Z 1818/1918 09017G26KT P6SM SKC
KPDX 
10nm N 
181732Z 1818/1918 VRB03KT P6SM SKC FM182000 10007KT P6SM SKC FM190700 VRB03KT P6SM SKC
KUAO 
13nm SW 
181732Z 1818/1918 01004KT P6SM SKC
KHIO 
18nm NW 
181732Z 1818/1918 VRB03KT P6SM SKC FM181900 08005KT P6SM SKC FM190700 VRB02KT P6SM SKC FM191400 00000KT 2SM BR SKC
NOTAMs
Click for the latest NOTAMs
NOTAMs are issued by the DoD/FAA and will open in a separate window not controlled by AirNav.

 

 
 

Would you like to see your business listed on this page?

 If your business provides an interesting product or service to pilots, flight crews, aircraft, or users of the Camp Withycombe Heliport, you should consider listing it here.  To start the listing process, click on the button below
 
Add a business
 

Other Pages about Camp Withycombe Heliport

Update a link
 
Copyright © AirNav, LLC. All rights reserved. Privacy Policy  Contact